Terminal Aerodrome Forecast
Issued by NWS

Home | Current Version | Previous Version | Text Only | Print | Product List | Glossary Off
Versions: 1 2 3 4 5 6 7 8 9 10 11 12 13 14 15

000
FTUS43 KBIS 171100
TAFDIK
TAF
KDIK 171132Z 1712/1812 31009KT P6SM BKN018
     FM171900 02007KT P6SM SCT025
     FM180100 10007KT P6SM SCT030
     FM180600 15009KT P6SM SCT025=

USA.gov is the U.S. government's official web portal to all federal, state and local government web resources and services.